sensor_id;sensor_type;location;lat;lon;timestamp;P1;durP1;ratioP1;P2;durP2;ratioP2
10007;SDS011;5043;41.766;26.204;2023-01-23T00:01:00;32.40;;;12.88;;
10007;SDS011;5043;41.766;26.204;2023-01-23T00:03:30;26.20;;;10.63;;
10007;SDS011;5043;41.766;26.204;2023-01-23T00:05:59;31.85;;;12.85;;
10007;SDS011;5043;41.766;26.204;2023-01-23T00:08:25;31.60;;;12.07;;
10007;SDS011;5043;41.766;26.204;2023-01-23T00:10:51;20.80;;;10.77;;
10007;SDS011;5043;41.766;26.204;2023-01-23T00:13:17;19.10;;;10.50;;
10007;SDS011;5043;41.766;26.204;2023-01-23T00:15:42;24.77;;;10.88;;
10007;SDS011;5043;41.766;26.204;2023-01-23T00:18:08;18.45;;;9.95;;
10007;SDS011;5043;41.766;26.204;2023-01-23T00:20:36;23.75;;;11.38;;
10007;SDS011;5043;41.766;26.204;2023-01-23T00:23:03;24.45;;;11.85;;
10007;SDS011;5043;41.766;26.204;2023-01-23T00:25:28;28.95;;;11.85;;
10007;SDS011;5043;41.766;26.204;2023-01-23T00:27:54;37.45;;;11.82;;
10007;SDS011;5043;41.766;26.204;2023-01-23T00:30:19;22.15;;;10.93;;
10007;SDS011;5043;41.766;26.204;2023-01-23T00:32:44;17.67;;;9.77;;
10007;SDS011;5043;41.766;26.204;2023-01-23T00:35:10;21.85;;;11.23;;
10007;SDS011;5043;41.766;26.204;2023-01-23T00:37:35;16.92;;;11.73;;
10007;SDS011;5043;41.766;26.204;2023-01-23T00:40:01;35.47;;;14.18;;
10007;SDS011;5043;41.766;26.204;2023-01-23T00:42:26;29.13;;;15.23;;
10007;SDS011;5043;41.766;26.204;2023-01-23T00:44:51;34.60;;;15.95;;
10007;SDS011;5043;41.766;26.204;2023-01-23T00:47:17;41.22;;;12.48;;
10007;SDS011;5043;41.766;26.204;2023-01-23T00:49:42;21.73;;;11.82;;
10007;SDS011;5043;41.766;26.204;2023-01-23T00:52:08;33.88;;;12.90;;
10007;SDS011;5043;41.766;26.204;2023-01-23T00:54:33;16.45;;;12.20;;
10007;SDS011;5043;41.766;26.204;2023-01-23T00:56:58;25.25;;;12.43;;
10007;SDS011;5043;41.766;26.204;2023-01-23T00:59:24;17.92;;;11.90;;
10007;SDS011;5043;41.766;26.204;2023-01-23T01:01:49;21.45;;;11.18;;
10007;SDS011;5043;41.766;26.204;2023-01-23T01:04:15;25.90;;;11.05;;
10007;SDS011;5043;41.766;26.204;2023-01-23T01:06:40;19.27;;;11.57;;
10007;SDS011;5043;41.766;26.204;2023-01-23T01:09:06;23.65;;;10.80;;
10007;SDS011;5043;41.766;26.204;2023-01-23T01:11:31;17.58;;;11.77;;
10007;SDS011;5043;41.766;26.204;2023-01-23T01:13:57;21.70;;;12.32;;
10007;SDS011;5043;41.766;26.204;2023-01-23T01:16:22;25.90;;;12.52;;
10007;SDS011;5043;41.766;26.204;2023-01-23T01:18:50;24.08;;;12.65;;
10007;SDS011;5043;41.766;26.204;2023-01-23T01:21:16;20.53;;;13.03;;
10007;SDS011;5043;41.766;26.204;2023-01-23T01:23:42;22.92;;;13.43;;
10007;SDS011;5043;41.766;26.204;2023-01-23T01:26:08;29.05;;;13.95;;
10007;SDS011;5043;41.766;26.204;2023-01-23T01:28:35;23.45;;;12.93;;
10007;SDS011;5043;41.766;26.204;2023-01-23T01:31:03;21.87;;;12.00;;
10007;SDS011;5043;41.766;26.204;2023-01-23T01:33:30;23.80;;;12.05;;
10007;SDS011;5043;41.766;26.204;2023-01-23T01:35:57;19.58;;;13.55;;
10007;SDS011;5043;41.766;26.204;2023-01-23T01:38:23;22.08;;;13.70;;
10007;SDS011;5043;41.766;26.204;2023-01-23T01:40:48;19.65;;;13.82;;
10007;SDS011;5043;41.766;26.204;2023-01-23T01:43:18;18.80;;;13.40;;
10007;SDS011;5043;41.766;26.204;2023-01-23T01:46:01;15.68;;;11.60;;
10007;SDS011;5043;41.766;26.204;2023-01-23T01:51:10;17.40;;;11.80;;
10007;SDS011;5043;41.766;26.204;2023-01-23T01:53:37;20.45;;;15.32;;
10007;SDS011;5043;41.766;26.204;2023-01-23T01:56:04;22.55;;;15.55;;
10007;SDS011;5043;41.766;26.204;2023-01-23T01:58:31;19.00;;;13.40;;
10007;SDS011;5043;41.766;26.204;2023-01-23T02:00:57;16.77;;;12.60;;
10007;SDS011;5043;41.766;26.204;2023-01-23T02:03:23;21.95;;;11.77;;
10007;SDS011;5043;41.766;26.204;2023-01-23T02:05:50;17.45;;;11.15;;
10007;SDS011;5043;41.766;26.204;2023-01-23T02:10:50;14.13;;;9.90;;
10007;SDS011;5043;41.766;26.204;2023-01-23T02:13:24;13.07;;;9.77;;
10007;SDS011;5043;41.766;26.204;2023-01-23T02:15:57;18.40;;;11.15;;
10007;SDS011;5043;41.766;26.204;2023-01-23T02:18:23;17.85;;;11.45;;
10007;SDS011;5043;41.766;26.204;2023-01-23T02:20:51;16.87;;;10.93;;
10007;SDS011;5043;41.766;26.204;2023-01-23T02:26:03;26.10;;;11.60;;
10007;SDS011;5043;41.766;26.204;2023-01-23T02:28:39;17.27;;;11.13;;
10007;SDS011;5043;41.766;26.204;2023-01-23T02:31:16;16.65;;;10.25;;
10007;SDS011;5043;41.766;26.204;2023-01-23T02:33:43;21.33;;;11.80;;
10007;SDS011;5043;41.766;26.204;2023-01-23T02:36:14;41.03;;;12.40;;
10007;SDS011;5043;41.766;26.204;2023-01-23T02:38:44;31.50;;;11.90;;
10007;SDS011;5043;41.766;26.204;2023-01-23T02:41:15;19.65;;;11.70;;
10007;SDS011;5043;41.766;26.204;2023-01-23T02:43:44;21.43;;;12.30;;
10007;SDS011;5043;41.766;26.204;2023-01-23T02:46:12;18.97;;;12.50;;
10007;SDS011;5043;41.766;26.204;2023-01-23T02:48:39;22.87;;;12.13;;
10007;SDS011;5043;41.766;26.204;2023-01-23T02:51:05;41.70;;;20.93;;
10007;SDS011;5043;41.766;26.204;2023-01-23T02:53:31;31.70;;;17.17;;
10007;SDS011;5043;41.766;26.204;2023-01-23T02:55:57;36.90;;;14.55;;
10007;SDS011;5043;41.766;26.204;2023-01-23T02:58:24;23.60;;;13.30;;
10007;SDS011;5043;41.766;26.204;2023-01-23T03:01:08;18.17;;;12.83;;
10007;SDS011;5043;41.766;26.204;2023-01-23T03:03:35;19.13;;;12.90;;
10007;SDS011;5043;41.766;26.204;2023-01-23T03:06:01;22.70;;;12.82;;
10007;SDS011;5043;41.766;26.204;2023-01-23T03:08:28;23.20;;;13.30;;
10007;SDS011;5043;41.766;26.204;2023-01-23T03:11:12;20.95;;;13.50;;
10007;SDS011;5043;41.766;26.204;2023-01-23T03:13:39;17.93;;;12.70;;
10007;SDS011;5043;41.766;26.204;2023-01-23T03:16:04;30.92;;;14.18;;
10007;SDS011;5043;41.766;26.204;2023-01-23T03:18:31;19.83;;;13.88;;
10007;SDS011;5043;41.766;26.204;2023-01-23T03:21:01;24.80;;;14.68;;
10007;SDS011;5043;41.766;26.204;2023-01-23T03:23:27;25.73;;;14.57;;
10007;SDS011;5043;41.766;26.204;2023-01-23T03:25:53;19.92;;;13.15;;
10007;SDS011;5043;41.766;26.204;2023-01-23T03:28:23;34.27;;;11.83;;
10007;SDS011;5043;41.766;26.204;2023-01-23T03:31:07;14.40;;;10.27;;
10007;SDS011;5043;41.766;26.204;2023-01-23T03:33:33;23.85;;;11.05;;
10007;SDS011;5043;41.766;26.204;2023-01-23T03:35:58;12.85;;;8.80;;
10007;SDS011;5043;41.766;26.204;2023-01-23T03:38:25;23.10;;;8.53;;
10007;SDS011;5043;41.766;26.204;2023-01-23T03:40:50;15.00;;;9.33;;
10007;SDS011;5043;41.766;26.204;2023-01-23T03:43:34;28.53;;;8.27;;
10007;SDS011;5043;41.766;26.204;2023-01-23T03:46:00;24.43;;;7.50;;
10007;SDS011;5043;41.766;26.204;2023-01-23T03:48:25;17.63;;;7.22;;
10007;SDS011;5043;41.766;26.204;2023-01-23T03:50:51;16.67;;;7.75;;
10007;SDS011;5043;41.766;26.204;2023-01-23T03:53:16;22.90;;;8.43;;
10007;SDS011;5043;41.766;26.204;2023-01-23T03:55:43;24.10;;;9.17;;
10007;SDS011;5043;41.766;26.204;2023-01-23T03:58:09;10.53;;;9.47;;
10007;SDS011;5043;41.766;26.204;2023-01-23T04:00:35;13.50;;;10.00;;
10007;SDS011;5043;41.766;26.204;2023-01-23T04:03:00;12.57;;;9.88;;
10007;SDS011;5043;41.766;26.204;2023-01-23T04:05:26;15.40;;;10.63;;
10007;SDS011;5043;41.766;26.204;2023-01-23T04:07:51;16.07;;;11.10;;
10007;SDS011;5043;41.766;26.204;2023-01-23T04:10:17;14.90;;;12.30;;
10007;SDS011;5043;41.766;26.204;2023-01-23T04:12:42;15.20;;;12.07;;
10007;SDS011;5043;41.766;26.204;2023-01-23T04:15:08;20.37;;;12.80;;
10007;SDS011;5043;41.766;26.204;2023-01-23T04:17:34;16.00;;;11.43;;
10007;SDS011;5043;41.766;26.204;2023-01-23T04:19:59;14.32;;;11.43;;
10007;SDS011;5043;41.766;26.204;2023-01-23T04:22:25;17.87;;;11.47;;
10007;SDS011;5043;41.766;26.204;2023-01-23T04:24:50;23.53;;;11.53;;
10007;SDS011;5043;41.766;26.204;2023-01-23T04:27:16;16.45;;;10.32;;
10007;SDS011;5043;41.766;26.204;2023-01-23T04:29:41;15.00;;;10.77;;
10007;SDS011;5043;41.766;26.204;2023-01-23T04:32:06;13.30;;;10.23;;
10007;SDS011;5043;41.766;26.204;2023-01-23T04:34:33;10.07;;;9.07;;
10007;SDS011;5043;41.766;26.204;2023-01-23T04:36:59;13.37;;;10.20;;
10007;SDS011;5043;41.766;26.204;2023-01-23T04:39:24;13.43;;;10.70;;
10007;SDS011;5043;41.766;26.204;2023-01-23T04:41:50;10.50;;;9.30;;
10007;SDS011;5043;41.766;26.204;2023-01-23T04:44:15;15.73;;;11.67;;
10007;SDS011;5043;41.766;26.204;2023-01-23T04:46:44;19.60;;;15.60;;
10007;SDS011;5043;41.766;26.204;2023-01-23T04:49:14;27.73;;;18.90;;
10007;SDS011;5043;41.766;26.204;2023-01-23T04:51:40;20.90;;;17.50;;
10007;SDS011;5043;41.766;26.204;2023-01-23T04:54:05;23.03;;;16.00;;
10007;SDS011;5043;41.766;26.204;2023-01-23T04:56:30;25.00;;;20.42;;
10007;SDS011;5043;41.766;26.204;2023-01-23T04:58:56;15.33;;;12.40;;
10007;SDS011;5043;41.766;26.204;2023-01-23T05:01:22;12.17;;;10.23;;
10007;SDS011;5043;41.766;26.204;2023-01-23T05:03:50;9.50;;;7.57;;
10007;SDS011;5043;41.766;26.204;2023-01-23T05:06:17;7.10;;;6.40;;
10007;SDS011;5043;41.766;26.204;2023-01-23T05:08:42;8.90;;;8.00;;
10007;SDS011;5043;41.766;26.204;2023-01-23T05:11:08;8.05;;;7.25;;
10007;SDS011;5043;41.766;26.204;2023-01-23T05:13:33;8.73;;;7.47;;
10007;SDS011;5043;41.766;26.204;2023-01-23T05:15:59;10.80;;;9.80;;
10007;SDS011;5043;41.766;26.204;2023-01-23T05:18:24;11.03;;;10.00;;
10007;SDS011;5043;41.766;26.204;2023-01-23T05:20:50;14.80;;;12.90;;
10007;SDS011;5043;41.766;26.204;2023-01-23T05:23:15;17.58;;;15.63;;
10007;SDS011;5043;41.766;26.204;2023-01-23T05:25:41;16.47;;;14.53;;
10007;SDS011;5043;41.766;26.204;2023-01-23T05:28:06;14.87;;;13.10;;
10007;SDS011;5043;41.766;26.204;2023-01-23T05:30:31;20.20;;;15.77;;
10007;SDS011;5043;41.766;26.204;2023-01-23T05:32:57;18.00;;;14.87;;
10007;SDS011;5043;41.766;26.204;2023-01-23T05:35:23;15.83;;;13.90;;
10007;SDS011;5043;41.766;26.204;2023-01-23T05:37:51;21.60;;;17.63;;
10007;SDS011;5043;41.766;26.204;2023-01-23T05:40:17;27.67;;;18.03;;
10007;SDS011;5043;41.766;26.204;2023-01-23T05:42:43;29.20;;;19.70;;
10007;SDS011;5043;41.766;26.204;2023-01-23T05:45:09;29.00;;;20.73;;
10007;SDS011;5043;41.766;26.204;2023-01-23T05:47:35;30.03;;;21.60;;
10007;SDS011;5043;41.766;26.204;2023-01-23T05:50:01;26.77;;;20.00;;
10007;SDS011;5043;41.766;26.204;2023-01-23T05:52:27;28.20;;;18.90;;
10007;SDS011;5043;41.766;26.204;2023-01-23T05:54:52;23.57;;;17.03;;
10007;SDS011;5043;41.766;26.204;2023-01-23T05:57:18;29.27;;;22.20;;
10007;SDS011;5043;41.766;26.204;2023-01-23T05:59:43;31.67;;;23.48;;
10007;SDS011;5043;41.766;26.204;2023-01-23T06:02:09;48.70;;;33.37;;
10007;SDS011;5043;41.766;26.204;2023-01-23T06:04:34;41.00;;;32.83;;
10007;SDS011;5043;41.766;26.204;2023-01-23T06:07:00;35.00;;;28.65;;
10007;SDS011;5043;41.766;26.204;2023-01-23T06:09:25;39.97;;;28.77;;
10007;SDS011;5043;41.766;26.204;2023-01-23T06:11:51;29.13;;;25.23;;
10007;SDS011;5043;41.766;26.204;2023-01-23T06:14:16;34.47;;;28.23;;
10007;SDS011;5043;41.766;26.204;2023-01-23T06:16:41;32.93;;;25.60;;
10007;SDS011;5043;41.766;26.204;2023-01-23T06:19:07;21.70;;;17.70;;
10007;SDS011;5043;41.766;26.204;2023-01-23T06:21:34;21.33;;;15.93;;
10007;SDS011;5043;41.766;26.204;2023-01-23T06:23:59;19.87;;;14.73;;
10007;SDS011;5043;41.766;26.204;2023-01-23T06:26:25;20.30;;;15.13;;
10007;SDS011;5043;41.766;26.204;2023-01-23T06:28:50;22.57;;;15.17;;
10007;SDS011;5043;41.766;26.204;2023-01-23T06:31:16;23.30;;;16.17;;
10007;SDS011;5043;41.766;26.204;2023-01-23T06:33:41;36.10;;;25.03;;
10007;SDS011;5043;41.766;26.204;2023-01-23T06:36:07;74.60;;;42.05;;
10007;SDS011;5043;41.766;26.204;2023-01-23T06:38:33;120.70;;;64.43;;
10007;SDS011;5043;41.766;26.204;2023-01-23T06:40:58;122.55;;;65.97;;
10007;SDS011;5043;41.766;26.204;2023-01-23T06:43:24;84.70;;;51.83;;
10007;SDS011;5043;41.766;26.204;2023-01-23T06:45:50;52.72;;;35.50;;
10007;SDS011;5043;41.766;26.204;2023-01-23T06:48:16;56.72;;;36.97;;
10007;SDS011;5043;41.766;26.204;2023-01-23T06:50:42;52.67;;;35.65;;
10007;SDS011;5043;41.766;26.204;2023-01-23T06:53:09;48.50;;;32.70;;
10007;SDS011;5043;41.766;26.204;2023-01-23T06:55:38;38.17;;;30.15;;
10007;SDS011;5043;41.766;26.204;2023-01-23T06:58:04;48.78;;;34.95;;
10007;SDS011;5043;41.766;26.204;2023-01-23T07:00:30;30.45;;;23.45;;
10007;SDS011;5043;41.766;26.204;2023-01-23T07:02:58;25.63;;;19.27;;
10007;SDS011;5043;41.766;26.204;2023-01-23T07:05:27;30.60;;;24.20;;
10007;SDS011;5043;41.766;26.204;2023-01-23T07:07:53;33.47;;;25.98;;
10007;SDS011;5043;41.766;26.204;2023-01-23T07:10:19;34.92;;;24.80;;
10007;SDS011;5043;41.766;26.204;2023-01-23T07:12:45;33.03;;;22.05;;
10007;SDS011;5043;41.766;26.204;2023-01-23T07:15:10;28.30;;;20.48;;
10007;SDS011;5043;41.766;26.204;2023-01-23T07:17:36;27.63;;;17.92;;
10007;SDS011;5043;41.766;26.204;2023-01-23T07:20:01;23.95;;;16.67;;
10007;SDS011;5043;41.766;26.204;2023-01-23T07:22:27;25.27;;;15.95;;
10007;SDS011;5043;41.766;26.204;2023-01-23T07:24:52;28.65;;;20.67;;
10007;SDS011;5043;41.766;26.204;2023-01-23T07:27:18;22.30;;;17.27;;
10007;SDS011;5043;41.766;26.204;2023-01-23T07:29:44;25.70;;;19.30;;
10007;SDS011;5043;41.766;26.204;2023-01-23T07:32:10;43.00;;;30.00;;
10007;SDS011;5043;41.766;26.204;2023-01-23T07:34:35;54.63;;;40.00;;
10007;SDS011;5043;41.766;26.204;2023-01-23T07:37:00;72.07;;;49.15;;
10007;SDS011;5043;41.766;26.204;2023-01-23T07:39:26;61.38;;;42.65;;
10007;SDS011;5043;41.766;26.204;2023-01-23T07:41:51;47.00;;;35.05;;
10007;SDS011;5043;41.766;26.204;2023-01-23T07:44:18;45.72;;;32.65;;
10007;SDS011;5043;41.766;26.204;2023-01-23T07:46:45;54.60;;;31.92;;
10007;SDS011;5043;41.766;26.204;2023-01-23T07:49:11;50.55;;;33.53;;
10007;SDS011;5043;41.766;26.204;2023-01-23T07:51:37;51.58;;;32.50;;
10007;SDS011;5043;41.766;26.204;2023-01-23T07:54:03;32.30;;;25.90;;
10007;SDS011;5043;41.766;26.204;2023-01-23T07:56:28;34.75;;;25.98;;
10007;SDS011;5043;41.766;26.204;2023-01-23T07:58:54;36.00;;;25.30;;
10007;SDS011;5043;41.766;26.204;2023-01-23T08:01:19;31.45;;;24.35;;
10007;SDS011;5043;41.766;26.204;2023-01-23T08:03:45;30.05;;;23.63;;
10007;SDS011;5043;41.766;26.204;2023-01-23T08:06:11;32.30;;;25.10;;
10007;SDS011;5043;41.766;26.204;2023-01-23T08:08:37;28.20;;;22.15;;
10007;SDS011;5043;41.766;26.204;2023-01-23T08:11:06;31.20;;;21.65;;
10007;SDS011;5043;41.766;26.204;2023-01-23T08:13:34;33.65;;;24.33;;
10007;SDS011;5043;41.766;26.204;2023-01-23T08:16:00;31.77;;;23.73;;
10007;SDS011;5043;41.766;26.204;2023-01-23T08:18:25;28.10;;;21.15;;
10007;SDS011;5043;41.766;26.204;2023-01-23T08:20:53;27.40;;;21.45;;
10007;SDS011;5043;41.766;26.204;2023-01-23T08:23:26;32.78;;;21.98;;
10007;SDS011;5043;41.766;26.204;2023-01-23T08:25:56;31.52;;;20.85;;
10007;SDS011;5043;41.766;26.204;2023-01-23T08:28:23;26.45;;;18.48;;
10007;SDS011;5043;41.766;26.204;2023-01-23T08:30:49;19.63;;;15.75;;
10007;SDS011;5043;41.766;26.204;2023-01-23T08:33:15;17.00;;;13.55;;
10007;SDS011;5043;41.766;26.204;2023-01-23T08:35:52;20.52;;;13.95;;
10007;SDS011;5043;41.766;26.204;2023-01-23T08:38:19;15.10;;;11.77;;
10007;SDS011;5043;41.766;26.204;2023-01-23T08:40:49;15.77;;;12.05;;
10007;SDS011;5043;41.766;26.204;2023-01-23T08:43:16;20.60;;;12.73;;
10007;SDS011;5043;41.766;26.204;2023-01-23T08:45:47;17.83;;;11.85;;
10007;SDS011;5043;41.766;26.204;2023-01-23T08:48:17;14.40;;;11.00;;
10007;SDS011;5043;41.766;26.204;2023-01-23T08:50:44;15.65;;;11.10;;
10007;SDS011;5043;41.766;26.204;2023-01-23T08:53:10;13.40;;;9.63;;
10007;SDS011;5043;41.766;26.204;2023-01-23T08:55:36;12.82;;;8.45;;
10007;SDS011;5043;41.766;26.204;2023-01-23T08:58:02;15.32;;;8.43;;
10007;SDS011;5043;41.766;26.204;2023-01-23T09:00:29;16.98;;;8.40;;
10007;SDS011;5043;41.766;26.204;2023-01-23T09:02:54;10.80;;;7.93;;
10007;SDS011;5043;41.766;26.204;2023-01-23T09:05:23;14.85;;;7.57;;
10007;SDS011;5043;41.766;26.204;2023-01-23T09:07:48;7.40;;;6.28;;
10007;SDS011;5043;41.766;26.204;2023-01-23T09:10:14;12.32;;;8.48;;
10007;SDS011;5043;41.766;26.204;2023-01-23T09:12:40;17.90;;;9.80;;
10007;SDS011;5043;41.766;26.204;2023-01-23T09:15:07;13.88;;;8.32;;
10007;SDS011;5043;41.766;26.204;2023-01-23T09:17:33;11.57;;;7.85;;
10007;SDS011;5043;41.766;26.204;2023-01-23T09:19:59;10.13;;;7.35;;
10007;SDS011;5043;41.766;26.204;2023-01-23T09:22:25;20.67;;;8.15;;
10007;SDS011;5043;41.766;26.204;2023-01-23T09:24:51;16.50;;;7.75;;
10007;SDS011;5043;41.766;26.204;2023-01-23T09:27:18;15.73;;;11.18;;
10007;SDS011;5043;41.766;26.204;2023-01-23T09:29:44;11.40;;;7.97;;
10007;SDS011;5043;41.766;26.204;2023-01-23T09:32:10;12.40;;;7.90;;
10007;SDS011;5043;41.766;26.204;2023-01-23T09:34:35;13.00;;;7.60;;
10007;SDS011;5043;41.766;26.204;2023-01-23T09:37:01;16.42;;;8.75;;
10007;SDS011;5043;41.766;26.204;2023-01-23T09:39:26;19.25;;;12.68;;
10007;SDS011;5043;41.766;26.204;2023-01-23T09:41:52;14.40;;;8.10;;
10007;SDS011;5043;41.766;26.204;2023-01-23T09:44:19;9.38;;;6.93;;
10007;SDS011;5043;41.766;26.204;2023-01-23T09:52:39;15.02;;;10.73;;
10007;SDS011;5043;41.766;26.204;2023-01-23T09:57:52;10.90;;;6.97;;
10007;SDS011;5043;41.766;26.204;2023-01-23T10:00:24;11.70;;;7.85;;
10007;SDS011;5043;41.766;26.204;2023-01-23T10:02:51;14.43;;;10.25;;
10007;SDS011;5043;41.766;26.204;2023-01-23T10:05:19;17.35;;;9.88;;
10007;SDS011;5043;41.766;26.204;2023-01-23T10:10:56;14.52;;;7.65;;
10007;SDS011;5043;41.766;26.204;2023-01-23T10:24:49;11.23;;;7.68;;
10007;SDS011;5043;41.766;26.204;2023-01-23T10:27:28;11.82;;;7.88;;
10007;SDS011;5043;41.766;26.204;2023-01-23T10:38:11;19.83;;;9.75;;
10007;SDS011;5043;41.766;26.204;2023-01-23T10:40:49;22.75;;;11.57;;
10007;SDS011;5043;41.766;26.204;2023-01-23T10:43:34;19.25;;;11.85;;
10007;SDS011;5043;41.766;26.204;2023-01-23T10:46:01;15.10;;;9.48;;
10007;SDS011;5043;41.766;26.204;2023-01-23T10:48:43;13.27;;;8.30;;
10007;SDS011;5043;41.766;26.204;2023-01-23T10:51:27;13.07;;;9.50;;
10007;SDS011;5043;41.766;26.204;2023-01-23T10:54:15;13.88;;;8.15;;
10007;SDS011;5043;41.766;26.204;2023-01-23T10:57:02;15.55;;;9.65;;
10007;SDS011;5043;41.766;26.204;2023-01-23T11:02:33;14.30;;;10.80;;
10007;SDS011;5043;41.766;26.204;2023-01-23T11:04:59;18.10;;;11.00;;
10007;SDS011;5043;41.766;26.204;2023-01-23T11:07:28;15.63;;;12.15;;
10007;SDS011;5043;41.766;26.204;2023-01-23T11:12:24;18.27;;;12.93;;
10007;SDS011;5043;41.766;26.204;2023-01-23T11:15:11;13.10;;;7.65;;
10007;SDS011;5043;41.766;26.204;2023-01-23T11:17:43;11.18;;;8.20;;
10007;SDS011;5043;41.766;26.204;2023-01-23T11:20:09;15.82;;;8.35;;
10007;SDS011;5043;41.766;26.204;2023-01-23T11:22:48;11.48;;;8.48;;
10007;SDS011;5043;41.766;26.204;2023-01-23T11:25:38;13.18;;;9.82;;
10007;SDS011;5043;41.766;26.204;2023-01-23T11:31:14;15.00;;;8.63;;
10007;SDS011;5043;41.766;26.204;2023-01-23T11:50:17;15.40;;;9.23;;
10007;SDS011;5043;41.766;26.204;2023-01-23T11:55:44;46.72;;;31.83;;
10007;SDS011;5043;41.766;26.204;2023-01-23T11:58:53;37.97;;;26.15;;
10007;SDS011;5043;41.766;26.204;2023-01-23T12:09:15;14.85;;;10.40;;
10007;SDS011;5043;41.766;26.204;2023-01-23T12:14:34;11.98;;;8.90;;
10007;SDS011;5043;41.766;26.204;2023-01-23T12:23:00;11.80;;;7.40;;
10007;SDS011;5043;41.766;26.204;2023-01-23T12:25:40;12.10;;;8.00;;
10007;SDS011;5043;41.766;26.204;2023-01-23T12:36:23;13.68;;;9.20;;
10007;SDS011;5043;41.766;26.204;2023-01-23T12:41:48;14.55;;;8.82;;
10007;SDS011;5043;41.766;26.204;2023-01-23T12:44:25;14.60;;;7.25;;
10007;SDS011;5043;41.766;26.204;2023-01-23T12:46:59;13.50;;;8.27;;
10007;SDS011;5043;41.766;26.204;2023-01-23T12:54:48;43.85;;;28.23;;
10007;SDS011;5043;41.766;26.204;2023-01-23T12:57:21;42.80;;;28.95;;
10007;SDS011;5043;41.766;26.204;2023-01-23T13:00:07;37.42;;;26.17;;
10007;SDS011;5043;41.766;26.204;2023-01-23T13:03:04;11.15;;;8.00;;
10007;SDS011;5043;41.766;26.204;2023-01-23T13:06:00;10.95;;;7.53;;
10007;SDS011;5043;41.766;26.204;2023-01-23T13:08:48;15.23;;;9.40;;
10007;SDS011;5043;41.766;26.204;2023-01-23T13:14:21;14.13;;;8.63;;
10007;SDS011;5043;41.766;26.204;2023-01-23T13:16:49;14.13;;;7.88;;
10007;SDS011;5043;41.766;26.204;2023-01-23T13:19:23;15.98;;;7.45;;
10007;SDS011;5043;41.766;26.204;2023-01-23T13:22:31;12.07;;;7.05;;
10007;SDS011;5043;41.766;26.204;2023-01-23T13:35:55;113.13;;;70.53;;
10007;SDS011;5043;41.766;26.204;2023-01-23T13:49:19;14.10;;;7.80;;
10007;SDS011;5043;41.766;26.204;2023-01-23T13:52:08;17.08;;;9.20;;
10007;SDS011;5043;41.766;26.204;2023-01-23T13:54:56;13.57;;;6.75;;
10007;SDS011;5043;41.766;26.204;2023-01-23T13:57:42;14.00;;;6.82;;
10007;SDS011;5043;41.766;26.204;2023-01-23T14:00:15;11.23;;;7.20;;
10007;SDS011;5043;41.766;26.204;2023-01-23T14:02:49;12.00;;;6.90;;
10007;SDS011;5043;41.766;26.204;2023-01-23T14:05:41;8.70;;;5.68;;
10007;SDS011;5043;41.766;26.204;2023-01-23T14:08:14;9.90;;;5.57;;
10007;SDS011;5043;41.766;26.204;2023-01-23T14:10:46;11.60;;;6.68;;
10007;SDS011;5043;41.766;26.204;2023-01-23T14:13:14;14.80;;;7.70;;
10007;SDS011;5043;41.766;26.204;2023-01-23T14:15:51;15.65;;;8.35;;
10007;SDS011;5043;41.766;26.204;2023-01-23T14:21:23;20.00;;;10.27;;
10007;SDS011;5043;41.766;26.204;2023-01-23T14:23:53;17.02;;;11.27;;
10007;SDS011;5043;41.766;26.204;2023-01-23T14:26:32;25.95;;;14.43;;
10007;SDS011;5043;41.766;26.204;2023-01-23T14:29:02;24.75;;;13.60;;
10007;SDS011;5043;41.766;26.204;2023-01-23T14:31:41;16.35;;;11.18;;
10007;SDS011;5043;41.766;26.204;2023-01-23T14:34:22;21.00;;;12.20;;
10007;SDS011;5043;41.766;26.204;2023-01-23T14:36:50;17.70;;;10.20;;
10007;SDS011;5043;41.766;26.204;2023-01-23T14:39:19;14.40;;;8.55;;
10007;SDS011;5043;41.766;26.204;2023-01-23T14:41:47;19.30;;;8.30;;
10007;SDS011;5043;41.766;26.204;2023-01-23T14:44:24;16.33;;;8.45;;
10007;SDS011;5043;41.766;26.204;2023-01-23T14:46:55;13.85;;;8.23;;
10007;SDS011;5043;41.766;26.204;2023-01-23T14:49:24;17.17;;;8.80;;
10007;SDS011;5043;41.766;26.204;2023-01-23T14:51:59;16.02;;;8.95;;
10007;SDS011;5043;41.766;26.204;2023-01-23T14:54:27;20.95;;;10.65;;
10007;SDS011;5043;41.766;26.204;2023-01-23T14:56:54;18.02;;;10.25;;
10007;SDS011;5043;41.766;26.204;2023-01-23T14:59:35;17.85;;;10.05;;
10007;SDS011;5043;41.766;26.204;2023-01-23T15:02:21;15.90;;;8.98;;
10007;SDS011;5043;41.766;26.204;2023-01-23T15:07:43;10.35;;;7.50;;
10007;SDS011;5043;41.766;26.204;2023-01-23T15:10:19;10.55;;;7.05;;
10007;SDS011;5043;41.766;26.204;2023-01-23T15:12:55;11.23;;;8.27;;
10007;SDS011;5043;41.766;26.204;2023-01-23T15:15:24;15.93;;;8.13;;
10007;SDS011;5043;41.766;26.204;2023-01-23T15:17:51;11.85;;;8.55;;
10007;SDS011;5043;41.766;26.204;2023-01-23T15:20:28;17.60;;;9.73;;
10007;SDS011;5043;41.766;26.204;2023-01-23T15:22:56;15.18;;;8.00;;
10007;SDS011;5043;41.766;26.204;2023-01-23T15:25:26;16.65;;;8.75;;
10007;SDS011;5043;41.766;26.204;2023-01-23T15:27:56;14.43;;;9.90;;
10007;SDS011;5043;41.766;26.204;2023-01-23T15:30:29;14.93;;;8.20;;
10007;SDS011;5043;41.766;26.204;2023-01-23T15:33:25;23.10;;;16.23;;
10007;SDS011;5043;41.766;26.204;2023-01-23T15:36:00;22.65;;;13.88;;
10007;SDS011;5043;41.766;26.204;2023-01-23T15:38:28;19.00;;;11.32;;
10007;SDS011;5043;41.766;26.204;2023-01-23T15:40:53;14.57;;;8.90;;
10007;SDS011;5043;41.766;26.204;2023-01-23T15:43:19;14.70;;;10.27;;
10007;SDS011;5043;41.766;26.204;2023-01-23T15:45:45;20.40;;;15.35;;
10007;SDS011;5043;41.766;26.204;2023-01-23T15:48:11;42.35;;;24.75;;
10007;SDS011;5043;41.766;26.204;2023-01-23T15:50:36;28.33;;;19.30;;
10007;SDS011;5043;41.766;26.204;2023-01-23T15:53:02;29.30;;;18.33;;
10007;SDS011;5043;41.766;26.204;2023-01-23T15:55:27;12.85;;;9.40;;
10007;SDS011;5043;41.766;26.204;2023-01-23T15:57:54;47.00;;;34.90;;
10007;SDS011;5043;41.766;26.204;2023-01-23T16:00:21;38.28;;;29.75;;
10007;SDS011;5043;41.766;26.204;2023-01-23T16:02:52;43.08;;;29.85;;
10007;SDS011;5043;41.766;26.204;2023-01-23T16:05:18;84.57;;;60.03;;
10007;SDS011;5043;41.766;26.204;2023-01-23T16:07:45;39.72;;;28.45;;
10007;SDS011;5043;41.766;26.204;2023-01-23T16:10:16;47.38;;;35.88;;
10007;SDS011;5043;41.766;26.204;2023-01-23T16:12:45;24.52;;;17.02;;
10007;SDS011;5043;41.766;26.204;2023-01-23T16:15:17;16.00;;;10.32;;
10007;SDS011;5043;41.766;26.204;2023-01-23T16:17:48;18.58;;;9.90;;
10007;SDS011;5043;41.766;26.204;2023-01-23T16:22:40;20.73;;;13.02;;
10007;SDS011;5043;41.766;26.204;2023-01-23T16:25:14;24.52;;;14.60;;
10007;SDS011;5043;41.766;26.204;2023-01-23T16:27:53;19.67;;;10.27;;
10007;SDS011;5043;41.766;26.204;2023-01-23T16:30:19;24.13;;;15.40;;
10007;SDS011;5043;41.766;26.204;2023-01-23T16:32:46;20.10;;;13.23;;
10007;SDS011;5043;41.766;26.204;2023-01-23T16:35:13;34.83;;;21.95;;
10007;SDS011;5043;41.766;26.204;2023-01-23T16:37:40;23.50;;;14.27;;
10007;SDS011;5043;41.766;26.204;2023-01-23T16:40:27;29.88;;;16.98;;
10007;SDS011;5043;41.766;26.204;2023-01-23T16:42:55;19.65;;;12.82;;
10007;SDS011;5043;41.766;26.204;2023-01-23T16:45:23;18.20;;;12.35;;
10007;SDS011;5043;41.766;26.204;2023-01-23T16:47:54;15.55;;;8.98;;
10007;SDS011;5043;41.766;26.204;2023-01-23T16:50:39;15.15;;;10.75;;